Time;durP1;ratioP1;P1;durP2;ratioP2;P2;SDS_P1;SDS_P2;PMS_P1;PMS_P2;Temp;Humidity;BMP_temperature;BMP_pressure;BME280_temperature;BME280_humidity;BME280_pressure;Samples;Min_cycle;Max_cycle;Signal;HPM_P1;HPM_P2
2021/07/19 00:00:24;;;;;;;72.82;30.55;;;;;;;20.17;85.25;98862.69;5094242;28;20132;-78
2021/07/19 00:02:54;;;;;;;72.68;32.05;;;;;;;20.13;85.54;98868.69;5094980;28;20170;-74
2021/07/19 00:05:22;;;;;;;69.00;29.85;;;;;;;20.16;85.63;98865.59;5094369;28;20040;-73
2021/07/19 00:07:49;;;;;;;65.20;29.65;;;;;;;20.20;85.47;98862.31;5094348;28;20412;-74
2021/07/19 00:10:16;;;;;;;66.45;29.42;;;;;;;20.27;85.06;98861.50;5093847;28;20428;-73
2021/07/19 00:12:43;;;;;;;71.40;30.02;;;;;;;20.35;84.98;98870.22;5094250;28;20176;-75
2021/07/19 00:15:15;;;;;;;64.60;28.98;;;;;;;20.34;84.65;98870.41;5094223;28;20488;-75
2021/07/19 00:17:43;;;;;;;66.40;28.27;;;;;;;20.29;84.72;98871.03;5093997;28;20404;-75
2021/07/19 00:20:10;;;;;;;69.88;29.95;;;;;;;20.30;84.72;98866.47;5093950;28;20052;-77
2021/07/19 00:22:36;;;;;;;63.22;29.27;;;;;;;20.39;84.46;98869.78;5093902;28;20142;-73
2021/07/19 00:25:04;;;;;;;63.75;28.25;;;;;;;20.42;84.15;98875.59;5094077;28;20174;-74
2021/07/19 00:27:30;;;;;;;59.92;26.13;;;;;;;20.42;84.17;98870.22;5093991;28;20051;-75
2021/07/19 00:29:56;;;;;;;56.95;24.77;;;;;;;20.42;83.92;98880.16;5094284;28;20540;-73
2021/07/19 00:32:22;;;;;;;57.33;25.65;;;;;;;20.40;84.09;98866.94;5093948;28;20032;-74
2021/07/19 00:34:47;;;;;;;55.40;24.60;;;;;;;20.43;83.67;98865.69;5093760;28;20447;-75
2021/07/19 00:37:25;;;;;;;62.90;25.58;;;;;;;20.49;83.60;98870.25;5093983;28;20450;-74
2021/07/19 00:39:51;;;;;;;50.88;23.00;;;;;;;20.51;83.49;98869.03;5093835;28;20040;-73
2021/07/19 00:42:16;;;;;;;54.97;24.80;;;;;;;20.50;83.26;98859.31;5094014;28;20051;-76
2021/07/19 00:44:43;;;;;;;55.92;24.80;;;;;;;20.52;83.36;98862.63;5093333;28;20556;-76
2021/07/19 00:47:10;;;;;;;57.17;23.75;;;;;;;20.56;82.96;98864.88;5093634;28;20119;-75
2021/07/19 00:49:36;;;;;;;57.53;24.92;;;;;;;20.58;83.22;98862.84;5075832;28;20362;-77
2021/07/19 00:52:04;;;;;;;51.00;24.48;;;;;;;20.66;82.90;98862.63;5058735;28;20446;-78
2021/07/19 00:54:33;;;;;;;57.55;24.33;;;;;;;20.74;82.76;98867.84;5092929;28;20123;-76
2021/07/19 00:56:58;;;;;;;;;;;;;;;20.79;82.16;98860.00;5076107;28;20093;-74
2021/07/19 00:59:25;;;;;;;52.17;23.17;;;;;;;20.80;82.14;98861.66;5093303;28;19923;-75
2021/07/19 01:01:52;;;;;;;;;;;;;;;20.83;81.75;98850.47;5093717;28;20035;-74
2021/07/19 01:04:21;;;;;;;51.05;22.65;;;;;;;20.86;81.97;98860.03;5074820;28;19928;-73
2021/07/19 01:06:52;;;;;;;49.78;22.63;;;;;;;20.91;81.58;98862.91;5075209;28;20055;-73
2021/07/19 01:09:20;;;;;;;49.03;22.27;;;;;;;20.92;81.44;98863.72;5058455;28;20132;-74
2021/07/19 01:11:46;;;;;;;48.20;22.30;;;;;;;20.90;81.33;98855.03;5093119;28;20048;-79
2021/07/19 01:14:13;;;;;;;;;;;;;;;20.85;81.18;98851.09;5059124;28;20093;-73
2021/07/19 01:16:39;;;;;;;55.20;22.25;;;;;;;20.83;81.23;98850.47;5092682;28;19924;-73
2021/07/19 01:19:06;;;;;;;48.70;22.45;;;;;;;20.81;81.52;98854.41;5093248;28;20052;-73
2021/07/19 01:21:51;;;;;;;60.63;24.08;;;;;;;20.69;81.90;98864.91;5074882;28;20051;-75
2021/07/19 01:24:38;;;;;;;53.00;23.80;;;;;;;20.66;82.39;98866.16;5074962;28;20039;-77
2021/07/19 01:27:28;;;;;;;49.88;22.98;;;;;;;20.66;82.23;98866.16;5074883;28;20050;-76
2021/07/19 01:29:57;;;;;;;47.00;22.50;;;;;;;20.75;82.15;98864.13;5075134;28;20040;-76
2021/07/19 01:32:24;;;;;;;47.08;22.63;;;;;;;20.72;82.08;98863.72;5085877;28;20103;-74
2021/07/19 01:34:51;;;;;;;49.17;22.03;;;;;;;20.72;82.06;98861.84;5093360;28;20063;-75
2021/07/19 01:37:17;;;;;;;61.23;29.50;;;;;;;20.72;81.87;98856.47;5113020;28;20040;-73
2021/07/19 01:40:04;;;;;;;66.63;32.30;;;;;;;20.79;81.92;98857.31;5079443;28;20484;-76
2021/07/19 01:42:31;;;;;;;72.65;34.40;;;;;;;20.85;81.66;98859.16;5074227;28;20104;-74
2021/07/19 01:44:59;;;;;;;70.35;32.22;;;;;;;20.90;81.39;98865.78;5091079;28;20055;-76
2021/07/19 01:47:25;;;;;;;58.25;25.65;;;;;;;20.94;81.34;98869.75;5074007;28;20496;-74
2021/07/19 01:49:52;;;;;;;49.50;22.93;;;;;;;21.00;80.94;98871.59;5074390;28;20044;-73
2021/07/19 01:52:19;;;;;;;42.70;20.83;;;;;;;21.01;80.76;98867.88;5092226;28;20043;-73
2021/07/19 01:54:46;;;;;;;42.70;20.42;;;;;;;21.02;80.61;98858.75;5074338;28;20404;-74
2021/07/19 01:57:13;;;;;;;44.95;20.23;;;;;;;21.01;80.37;98857.13;5092622;28;20382;-75
2021/07/19 02:00:00;;;;;;;38.53;19.63;;;;;;;21.00;80.88;98855.47;5091689;28;20054;-74
2021/07/19 02:02:54;;;;;;;43.33;18.02;;;;;;;20.96;80.53;98854.22;5061344;28;20061;-75
2021/07/19 02:05:24;;;;;;;35.63;18.35;;;;;;;20.98;80.60;98862.91;5073599;28;20067;-74
2021/07/19 02:07:59;;;;;;;35.28;18.70;;;;;;;21.05;80.33;98862.91;5073845;28;20044;-77
2021/07/19 02:10:28;;;;;;;41.33;20.00;;;;;;;21.09;80.54;98862.28;5057070;28;20064;-73
2021/07/19 02:12:56;;;;;;;41.35;19.52;;;;;;;21.08;80.36;98868.69;5057892;28;20104;-75
2021/07/19 02:15:27;;;;;;;44.55;20.05;;;;;;;21.08;80.47;98868.69;5073983;28;20511;-74
2021/07/19 02:17:58;;;;;;;43.72;20.02;;;;;;;21.00;80.71;98871.59;5074269;28;20446;-75
2021/07/19 02:20:27;;;;;;;52.38;20.95;;;;;;;21.02;80.72;98877.59;5074222;28;20459;-74
2021/07/19 02:22:55;;;;;;;48.80;19.75;;;;;;;20.95;81.18;98874.09;5091404;28;20345;-75
2021/07/19 02:25:40;;;;;;;48.15;21.23;;;;;;;20.91;81.17;98878.19;5076517;28;20155;-75
2021/07/19 02:28:10;;;;;;;47.13;19.38;;;;;;;20.96;81.24;98871.19;5091839;28;20047;-77
2021/07/19 02:30:37;;;;;;;49.33;20.83;;;;;;;21.05;80.49;98873.66;5073308;28;20093;-76
2021/07/19 02:33:03;;;;;;;48.45;19.85;;;;;;;21.10;80.67;98869.31;5092028;28;20151;-77
2021/07/19 02:35:33;;;;;;;44.63;19.98;;;;;;;21.19;80.39;98869.13;5073136;28;20044;-76
2021/07/19 02:38:05;;;;;;;45.25;19.42;;;;;;;21.44;79.78;98872.81;5057247;28;20047;-74
2021/07/19 02:40:44;;;;;;;55.92;24.88;;;;;;;21.50;79.06;98877.34;5073624;28;20040;-77
2021/07/19 02:43:11;;;;;;;46.40;20.30;;;;;;;21.35;79.52;98884.84;5073652;28;20043;-76
2021/07/19 02:45:39;;;;;;;51.10;22.40;;;;;;;21.37;79.93;98892.69;5091380;28;20075;-74
2021/07/19 02:48:08;;;;;;;49.08;20.08;;;;;;;21.40;79.74;98886.91;5073406;28;20040;-76
2021/07/19 02:50:39;;;;;;;50.92;20.83;;;;;;;21.39;79.63;98882.56;5057578;28;20036;-76
2021/07/19 02:53:11;;;;;;;51.67;20.00;;;;;;;21.15;80.28;98882.97;5091511;28;20044;-76
2021/07/19 02:55:39;;;;;;;50.50;20.08;;;;;;;21.16;80.39;98881.13;5073281;28;20097;-74
2021/07/19 02:58:06;;;;;;;44.03;19.83;;;;;;;21.22;80.76;98880.31;5073486;28;20092;-76
2021/07/19 03:00:34;;;;;;;43.00;18.50;;;;;;;21.26;80.39;98886.06;5075125;28;20071;-76
2021/07/19 03:03:08;;;;;;;46.40;18.73;;;;;;;21.28;80.38;98889.38;5110715;28;20043;-76
2021/07/19 03:05:41;;;;;;;46.90;19.13;;;;;;;21.29;80.10;98891.03;5097207;28;20120;-75
2021/07/19 03:08:11;;;;;;;48.75;19.67;;;;;;;21.32;80.16;98886.06;5092334;28;20357;-77
2021/07/19 03:10:59;;;;;;;51.28;20.85;;;;;;;21.33;80.28;98895.81;5088802;28;20591;-76
2021/07/19 03:13:32;;;;;;;48.97;19.13;;;;;;;21.27;80.30;98885.88;5093814;28;20108;-75
2021/07/19 03:15:59;;;;;;;45.33;19.27;;;;;;;21.20;80.83;98885.03;5077827;28;20126;-77
2021/07/19 03:18:28;;;;;;;48.63;19.95;;;;;;;21.27;80.68;98885.03;5080552;28;20078;-75
2021/07/19 03:20:57;;;;;;;47.63;19.02;;;;;;;21.43;80.57;98881.94;5097411;28;20047;-77
2021/07/19 03:23:27;;;;;;;47.88;19.40;;;;;;;21.55;79.81;98884.81;5096822;28;20089;-74
2021/07/19 03:25:53;;;;;;;46.97;18.88;;;;;;;21.65;79.14;98881.72;5097456;28;20510;-79
2021/07/19 03:28:20;;;;;;;41.00;17.77;;;;;;;21.84;78.91;98873.81;5115538;28;20051;-80
2021/07/19 03:30:51;;;;;;;44.58;18.05;;;;;;;21.85;78.35;98876.28;5097547;28;20047;-78
2021/07/19 03:33:17;;;;;;;45.00;17.88;;;;;;;21.83;77.92;98874.84;5096761;28;20126;-79
2021/07/19 03:35:44;;;;;;;41.07;17.87;;;;;;;21.92;78.29;98869.00;5096585;28;20043;-77
2021/07/19 03:38:14;;;;;;;41.95;17.98;;;;;;;22.05;77.26;98876.19;5080373;28;20050;-77
2021/07/19 03:41:00;;;;;;;41.67;17.75;;;;;;;22.12;77.03;98885.09;5115451;28;20035;-77
2021/07/19 03:43:32;;;;;;;36.17;16.95;;;;;;;22.10;76.75;98881.78;5096375;28;20051;-77
2021/07/19 03:45:59;;;;;;;42.25;17.33;;;;;;;22.19;76.67;98890.44;5096743;28;20042;-75
2021/07/19 03:48:26;;;;;;;39.40;17.77;;;;;;;22.11;77.17;98883.44;5080328;28;20134;-76
2021/07/19 03:50:52;;;;;;;35.65;15.88;;;;;;;22.19;76.86;98885.06;5097324;28;20052;-76
2021/07/19 03:53:19;;;;;;;35.30;16.55;;;;;;;22.09;76.96;98884.69;5096832;28;20067;-77
2021/07/19 03:55:58;;;;;;;39.65;17.45;;;;;;;22.05;77.61;98884.28;5098828;28;20050;-77
2021/07/19 03:58:24;;;;;;;38.03;17.10;;;;;;;22.06;77.53;98896.72;5096849;28;20046;-77
2021/07/19 04:00:53;;;;;;;39.50;17.27;;;;;;;22.04;77.40;98898.78;5096370;28;20054;-77
2021/07/19 04:03:26;;;;;;;41.00;16.85;;;;;;;22.07;77.41;98898.38;5096587;28;20531;-77
2021/07/19 04:06:02;;;;;;;34.83;18.30;;;;;;;22.04;77.69;98900.66;5096238;28;20142;-80
2021/07/19 04:08:46;;;;;;;38.45;17.60;;;;;;;22.05;77.45;98905.81;5081460;28;20135;-78
2021/07/19 04:11:18;;;;;;;35.03;16.80;;;;;;;22.49;76.75;98899.88;5075947;28;20155;-74
2021/07/19 04:13:45;;;;;;;35.35;15.75;;;;;;;22.91;74.80;98897.56;5092897;28;20093;-76
2021/07/19 04:16:18;;;;;;;33.67;15.90;;;;;;;23.32;73.59;98900.81;5093122;28;20043;-77
2021/07/19 04:18:46;;;;;;;40.38;19.88;;;;;;;23.83;71.94;98904.25;5092898;28;20128;-75
2021/07/19 04:21:12;;;;;;;41.25;18.30;;;;;;;24.33;70.09;98898.69;5059428;28;20071;-79
2021/07/19 04:23:40;;;;;;;;;;;;;;;24.67;68.24;98892.88;5092514;28;20047;-76
2021/07/19 04:26:15;;;;;;;35.17;15.15;;;;;;;25.34;66.67;98886.41;5093028;28;19920;-78
2021/07/19 04:28:44;;;;;;;29.42;14.07;;;;;;;25.38;65.40;98892.22;5092670;28;20373;-77
2021/07/19 04:31:16;;;;;;;26.77;13.00;;;;;;;25.92;63.25;98887.47;5092617;28;20047;-76
2021/07/19 04:33:49;;;;;;;32.70;15.05;;;;;;;27.09;60.23;98894.56;5092595;28;20040;-78
2021/07/19 04:36:20;;;;;;;32.40;14.27;;;;;;;28.76;55.72;98900.06;5092436;28;20071;-80
2021/07/19 04:38:46;;;;;;;26.10;13.27;;;;;;;29.01;54.25;98895.94;5093243;28;20083;-79
2021/07/19 04:41:19;;;;;;;26.33;13.13;;;;;;;28.49;54.94;98895.44;5093703;28;20127;-79
2021/07/19 04:43:48;;;;;;;25.27;13.88;;;;;;;28.10;55.75;98892.81;5092174;28;20436;-79
2021/07/19 04:46:15;;;;;;;25.30;13.30;;;;;;;28.97;54.03;98894.84;5059094;28;20044;-80
2021/07/19 04:48:41;;;;;;;26.95;12.90;;;;;;;28.44;54.90;98889.94;5093689;28;20127;-79
2021/07/19 04:51:07;;;;;;;22.02;12.05;;;;;;;27.91;56.28;98884.13;5092505;28;20040;-79
2021/07/19 04:53:33;;;;;;;37.65;18.13;;;;;;;29.18;54.13;98885.75;5058844;28;20048;-78
2021/07/19 04:56:00;;;;;;;26.70;13.85;;;;;;;28.78;53.78;98880.78;5092336;28;20051;-79
2021/07/19 04:58:27;;;;;;;24.48;13.57;;;;;;;27.79;56.65;98892.41;5093532;28;20050;-79
2021/07/19 05:01:05;;;;;;;27.92;14.32;;;;;;;27.92;56.75;98885.75;5092426;28;20089;-81
2021/07/19 05:03:34;;;;;;;24.25;13.13;;;;;;;28.63;54.67;98881.44;5075181;28;20046;-78
2021/07/19 05:06:00;;;;;;;25.73;14.25;;;;;;;28.39;55.05;98884.47;5092223;28;20096;-80
2021/07/19 05:08:26;;;;;;;23.07;13.27;;;;;;;28.30;55.16;98880.53;5075630;28;20036;-80
2021/07/19 05:10:53;;;;;;;24.73;13.07;;;;;;;28.27;55.56;98886.50;5075042;28;20463;-78
2021/07/19 05:13:20;;;;;;;28.25;14.18;;;;;;;28.25;55.80;98879.41;5093654;28;20051;-79
2021/07/19 05:15:47;;;;;;;26.85;13.82;;;;;;;28.77;54.92;98888.13;5092258;28;20047;-78
2021/07/19 05:18:17;;;;;;;25.00;12.88;;;;;;;29.41;52.90;98881.06;5092410;28;20032;-81
2021/07/19 05:20:43;;;;;;;24.83;12.88;;;;;;;29.00;53.37;98884.25;5093868;28;20051;-78
2021/07/19 05:23:08;;;;;;;31.15;13.35;;;;;;;28.82;54.08;98893.59;5093592;28;20040;-78
2021/07/19 05:25:34;;;;;;;25.02;13.70;;;;;;;28.80;53.42;98884.06;5100893;28;20512;-79
2021/07/19 05:28:11;;;;;;;25.77;14.40;;;;;;;28.79;53.79;98894.13;5079412;28;20103;-82
2021/07/19 05:30:38;;;;;;;;;;;;;;;28.81;53.62;98894.72;5075834;28;20044;-79
2021/07/19 05:33:05;;;;;;;28.77;13.32;;;;;;;28.54;54.47;98887.31;5075094;28;19923;-79
2021/07/19 05:35:30;;;;;;;30.25;14.32;;;;;;;29.84;51.46;98892.72;5091451;28;20063;-78
2021/07/19 05:37:56;;;;;;;26.45;13.82;;;;;;;30.64;49.10;98888.16;5091146;28;20086;-80
2021/07/19 05:40:22;;;;;;;25.70;15.95;;;;;;;30.77;48.62;98890.34;5074204;28;20081;-79
2021/07/19 05:42:48;;;;;;;22.52;13.05;;;;;;;29.79;50.59;98894.63;5091164;28;20083;-80
2021/07/19 05:45:16;;;;;;;25.53;13.70;;;;;;;31.43;47.25;98880.53;5091949;28;20065;-80
2021/07/19 05:47:42;;;;;;;23.50;12.23;;;;;;;33.73;42.41;98882.47;5074475;28;20078;-78
2021/07/19 05:50:09;;;;;;;23.92;12.93;;;;;;;33.83;41.56;98879.63;5091749;28;20044;-77
2021/07/19 05:52:35;;;;;;;23.73;12.88;;;;;;;32.23;44.31;98886.34;5091078;28;20409;-80
2021/07/19 05:55:02;;;;;;;18.10;11.60;;;;;;;31.96;45.17;98882.03;5091664;28;20495;-80
2021/07/19 05:57:28;;;;;;;;;;;;;;;32.39;44.40;98887.91;5074899;28;20040;-80
2021/07/19 05:59:56;;;;;;;23.25;12.07;;;;;;;33.71;42.23;98882.75;5074448;28;19915;-79
2021/07/19 06:02:28;;;;;;;24.75;12.95;;;;;;;34.48;40.16;98891.97;5092567;28;20040;-85
2021/07/19 06:04:55;;;;;;;25.85;13.65;;;;;;;33.51;41.99;98883.75;5091412;28;20544;-81
2021/07/19 06:07:21;;;;;;;22.30;11.50;;;;;;;32.54;43.54;98888.91;5092374;28;20043;-78
2021/07/19 06:09:47;;;;;;;22.58;11.48;;;;;;;33.39;42.07;98890.47;5097687;28;20096;-78
2021/07/19 06:12:15;;;;;;;20.00;11.38;;;;;;;32.87;43.31;98898.28;5112822;28;20043;-80
2021/07/19 06:14:42;;;;;;;21.08;12.15;;;;;;;33.43;42.35;98893.44;5094732;28;20043;-78
2021/07/19 06:17:08;;;;;;;18.13;11.48;;;;;;;35.58;38.43;98892.69;5112562;28;20097;-78
2021/07/19 06:19:33;;;;;;;20.42;10.90;;;;;;;34.58;39.45;98908.31;5112418;28;20420;-78
2021/07/19 06:21:59;;;;;;;17.50;10.32;;;;;;;34.23;40.09;98896.66;5052822;28;20057;-77
2021/07/19 06:24:25;;;;;;;20.65;11.05;;;;;;;36.39;36.53;98888.59;5069752;28;20060;-79
2021/07/19 06:26:51;;;;;;;18.83;11.20;;;;;;;36.09;36.39;98896.38;5069556;28;20591;-80
2021/07/19 06:29:17;;;;;;;16.02;10.75;;;;;;;33.79;39.99;98900.50;5052966;28;20068;-81
2021/07/19 06:31:43;;;;;;;18.63;10.60;;;;;;;35.57;37.48;98891.88;5069110;28;20135;-79
2021/07/19 06:34:09;;;;;;;18.05;11.38;;;;;;;36.34;35.53;98897.78;5036174;28;20041;-78
2021/07/19 06:36:36;;;;;;;21.30;11.53;;;;;;;35.58;36.35;98892.69;5052356;28;20082;-79
2021/07/19 06:39:04;;;;;;;17.35;10.38;;;;;;;35.79;36.24;98891.19;5052677;28;20032;-77
2021/07/19 06:41:33;;;;;;;16.88;11.80;;;;;;;34.67;37.48;98898.28;5052256;28;20056;-79
2021/07/19 06:43:59;;;;;;;16.75;11.13;;;;;;;35.70;36.31;98894.94;5053112;28;20048;-79
2021/07/19 06:46:24;;;;;;;15.98;10.15;;;;;;;35.30;36.66;98904.47;5069714;28;20055;-80
2021/07/19 06:48:50;;;;;;;15.73;10.48;;;;;;;35.14;37.68;98905.81;5053776;28;20099;-82
2021/07/19 06:51:17;;;;;;;20.45;10.57;;;;;;;35.57;36.56;98902.88;5072808;28;20111;-81
2021/07/19 06:53:42;;;;;;;19.02;10.43;;;;;;;36.61;34.83;98901.59;5109688;28;20063;-79
2021/07/19 06:56:08;;;;;;;18.55;10.68;;;;;;;35.30;36.40;98909.97;5066901;28;20060;-83
2021/07/19 06:58:35;;;;;;;20.17;11.90;;;;;;;34.35;38.57;98908.06;5082534;28;20040;-80
2021/07/19 07:01:00;;;;;;;18.60;10.90;;;;;;;35.06;37.97;98903.78;5048711;28;20127;-78
2021/07/19 07:03:26;;;;;;;15.07;9.73;;;;;;;37.42;34.01;98897.19;5099265;28;20043;-81
2021/07/19 07:05:52;;;;;;;42.58;38.03;;;;;;;36.31;34.86;98901.16;5098785;28;20043;-80
2021/07/19 07:08:19;;;;;;;19.02;10.85;;;;;;;35.51;35.86;98903.31;5065570;28;20043;-80
2021/07/19 07:10:45;;;;;;;19.00;10.68;;;;;;;34.95;36.58;98903.13;5099447;28;20419;-81
2021/07/19 07:13:11;;;;;;;20.20;11.25;;;;;;;36.71;34.07;98906.06;5082404;28;20039;-81
2021/07/19 07:15:38;;;;;;;16.00;10.77;;;;;;;36.99;34.23;98911.53;5117129;28;20070;-80
2021/07/19 07:18:08;;;;;;;20.55;13.70;;;;;;;37.67;32.55;98911.41;5098608;28;20035;-81
2021/07/19 07:20:35;;;;;;;20.92;10.80;;;;;;;37.77;31.95;98908.38;5065945;28;20591;-81
2021/07/19 07:23:01;;;;;;;20.30;11.50;;;;;;;37.22;32.43;98904.03;5081392;28;20035;-80
2021/07/19 07:25:27;;;;;;;20.25;11.68;;;;;;;37.05;32.78;98910.22;5098942;28;20043;-80
2021/07/19 07:27:53;;;;;;;21.75;10.80;;;;;;;36.54;32.89;98904.81;5117270;28;20130;-81
2021/07/19 07:30:20;;;;;;;17.27;10.73;;;;;;;35.89;34.72;98905.88;5081896;28;20078;-81
2021/07/19 07:32:50;;;;;;;18.73;10.63;;;;;;;36.55;34.03;98903.69;5100016;28;20043;-85
2021/07/19 07:35:16;;;;;;;14.25;9.40;;;;;;;37.92;31.76;98904.38;5098715;28;20082;-80
2021/07/19 07:37:43;;;;;;;18.48;11.10;;;;;;;36.90;32.74;98904.00;5083231;28;20044;-83
2021/07/19 07:40:12;;;;;;;20.10;10.07;;;;;;;37.65;32.01;98905.44;5057072;28;20659;-83
2021/07/19 07:42:38;;;;;;;17.02;10.15;;;;;;;36.85;32.82;98912.38;5024466;28;20053;-79
2021/07/19 07:45:05;;;;;;;17.83;10.55;;;;;;;36.00;34.53;98904.53;5058095;28;20063;-83
2021/07/19 07:47:31;;;;;;;18.45;11.05;;;;;;;35.37;35.64;98906.00;5056069;28;20044;-81
2021/07/19 07:49:57;;;;;;;19.27;10.60;;;;;;;34.67;36.50;98920.25;5072668;28;20047;-79
2021/07/19 07:52:23;;;;;;;16.53;10.90;;;;;;;34.80;36.86;98909.63;5056370;28;20040;-80
2021/07/19 07:54:49;;;;;;;14.75;10.02;;;;;;;35.14;35.59;98906.66;5056029;28;20787;-79
2021/07/19 07:57:14;;;;;;;15.80;9.80;;;;;;;34.14;37.27;98909.44;5056332;28;20040;-81
2021/07/19 07:59:40;;;;;;;17.10;10.00;;;;;;;34.08;36.40;98902.38;5072928;28;20083;-83
2021/07/19 08:02:08;;;;;;;17.10;10.35;;;;;;;35.15;34.95;98893.72;5038832;28;20040;-82
2021/07/19 08:04:34;;;;;;;15.35;9.43;;;;;;;37.32;31.39;98884.44;5072307;28;20049;-81
2021/07/19 08:07:01;;;;;;;14.68;9.38;;;;;;;37.12;30.15;98887.75;5055967;28;20036;-80
2021/07/19 08:09:28;;;;;;;14.20;10.07;;;;;;;37.87;29.13;98883.28;5072383;28;20055;-81
2021/07/19 08:11:57;;;;;;;14.60;9.88;;;;;;;38.42;28.62;98878.38;5090275;28;20051;-80
2021/07/19 08:14:23;;;;;;;15.25;10.48;;;;;;;38.17;28.31;98871.63;5096474;28;20044;-83
2021/07/19 08:16:49;;;;;;;20.95;16.08;;;;;;;39.85;27.26;98881.38;5097423;28;20470;-84
2021/07/19 08:19:15;;;;;;;20.77;11.00;;;;;;;40.55;25.53;98875.38;5114628;28;20126;-82
2021/07/19 08:21:41;;;;;;;19.00;13.23;;;;;;;40.36;25.81;98882.19;5096335;28;20633;-82
2021/07/19 08:24:08;;;;;;;16.85;11.90;;;;;;;40.87;25.34;98873.78;5096313;28;20143;-82
2021/07/19 08:26:34;;;;;;;15.73;10.23;;;;;;;39.90;26.17;98873.66;5114252;28;20047;-81
2021/07/19 08:29:00;;;;;;;14.40;10.00;;;;;;;38.17;28.50;98877.16;5080415;28;20077;-81
2021/07/19 08:31:27;;;;;;;24.20;15.38;;;;;;;38.22;28.54;98873.44;5097296;28;20047;-82
2021/07/19 08:33:54;;;;;;;18.63;11.40;;;;;;;39.41;26.62;98868.50;5114104;28;20480;-82
2021/07/19 08:36:21;;;;;;;13.95;10.07;;;;;;;39.74;25.62;98865.13;5079553;28;20502;-81
2021/07/19 08:38:48;;;;;;;17.23;11.02;;;;;;;40.32;25.26;98866.59;5080631;28;20032;-81
2021/07/19 08:41:15;;;;;;;17.58;12.32;;;;;;;42.06;23.94;98871.44;5100209;28;20165;-80
2021/07/19 08:43:42;;;;;;;14.07;10.38;;;;;;;42.13;23.46;98862.50;5097933;28;20043;-82
2021/07/19 08:46:09;;;;;;;17.45;11.00;;;;;;;40.54;24.48;98862.66;5079723;28;20074;-79
2021/07/19 08:48:42;;;;;;;16.85;10.13;;;;;;;39.05;26.34;98855.88;5079908;28;20039;-84
2021/07/19 08:51:08;;;;;;;15.95;10.20;;;;;;;38.68;27.17;98863.72;5045867;28;20492;-82
2021/07/19 08:53:44;;;;;;;15.75;9.88;;;;;;;40.08;25.96;98846.69;5096765;28;20480;-80
2021/07/19 08:56:11;;;;;;;17.48;10.00;;;;;;;41.22;24.53;98844.91;5097343;28;20138;-82
2021/07/19 08:58:37;;;;;;;14.15;9.73;;;;;;;39.98;25.41;98849.84;5096260;28;20543;-85
2021/07/19 09:01:03;;;;;;;16.13;9.93;;;;;;;40.60;24.98;98844.69;5046126;28;20051;-78
2021/07/19 09:03:29;;;;;;;20.08;10.07;;;;;;;40.01;25.46;98851.94;5080261;28;20046;-83
2021/07/19 09:05:56;;;;;;;22.23;10.82;;;;;;;39.87;25.54;98845.84;5080860;28;20099;-83
2021/07/19 09:08:23;;;;;;;15.88;10.13;;;;;;;38.61;26.50;98858.69;5007117;28;20056;-78
2021/07/19 09:10:49;;;;;;;15.77;9.10;;;;;;;36.85;27.92;98851.75;5007724;28;20397;-80
2021/07/19 09:13:17;;;;;;;19.52;9.73;;;;;;;37.72;25.41;98850.56;5023803;28;20044;-83
2021/07/19 09:15:43;;;;;;;12.68;9.32;;;;;;;37.52;25.71;98852.78;5056797;28;20053;-81
2021/07/19 09:18:37;;;;;;;19.05;9.88;;;;;;;38.91;24.24;98842.25;5056694;28;20061;-84
2021/07/19 09:21:03;;;;;;;18.85;12.02;;;;;;;40.89;22.30;98840.19;5044503;28;20509;-82
2021/07/19 09:23:38;;;;;;;14.77;9.60;;;;;;;40.90;21.67;98836.22;5009164;28;20095;-85
2021/07/19 09:26:15;;;;;;;12.50;9.10;;;;;;;40.54;22.26;98834.91;5039767;28;20502;-81
2021/07/19 09:28:43;;;;;;;15.40;10.88;;;;;;;41.58;21.27;98839.75;5036230;28;20060;-83
2021/07/19 09:31:38;;;;;;;15.65;9.40;;;;;;;41.47;21.38;98831.06;5037647;28;20538;-85
2021/07/19 09:34:10;;;;;;;;;;;;;;;40.86;21.69;98836.09;5020291;28;20234;-81
2021/07/19 09:36:36;;;;;;;14.02;9.98;;;;;;;40.47;22.38;98831.91;5052188;28;19949;-80
2021/07/19 09:39:03;;;;;;;;;;;;;;;39.53;23.73;98839.31;5034771;28;20048;-81
2021/07/19 09:41:31;;;;;;;15.15;10.00;;;;;;;38.49;25.19;98851.03;5074849;28;19923;-83
2021/07/19 09:43:57;;;;;;;13.10;9.15;;;;;;;38.23;25.76;98845.50;5076620;28;20088;-79
2021/07/19 09:46:33;;;;;;;18.17;9.55;;;;;;;38.77;25.73;98847.97;5059151;28;20146;-81
2021/07/19 09:49:00;;;;;;;13.13;9.40;;;;;;;38.94;24.39;98838.81;5074798;28;20514;-82
2021/07/19 09:51:32;;;;;;;14.35;8.57;;;;;;;39.11;23.13;98837.19;5092015;28;20048;-81
2021/07/19 09:54:13;;;;;;;12.93;9.00;;;;;;;37.38;24.61;98843.78;5075683;28;20047;-82
2021/07/19 09:56:51;;;;;;;19.15;11.07;;;;;;;37.42;24.60;98844.78;5019934;28;20050;-83
2021/07/19 09:59:17;;;;;;;13.18;9.27;;;;;;;37.90;23.32;98847.88;5079330;28;20134;-82
2021/07/19 10:01:44;;;;;;;14.95;9.30;;;;;;;37.24;24.39;98841.91;5079948;28;20067;-82
2021/07/19 10:04:14;;;;;;;18.35;10.35;;;;;;;36.35;25.91;98843.50;5080298;28;20039;-84
2021/07/19 10:06:42;;;;;;;11.98;8.38;;;;;;;35.48;27.35;98844.22;5079612;28;20147;-81
2021/07/19 10:09:09;;;;;;;20.13;9.63;;;;;;;35.58;28.27;98843.16;5062301;28;20043;-80
2021/07/19 10:11:38;;;;;;;14.93;9.35;;;;;;;37.07;25.95;98830.78;5113785;28;20039;-79
2021/07/19 10:14:05;;;;;;;15.63;9.18;;;;;;;37.12;25.55;98833.41;5078136;28;20047;-80
2021/07/19 10:16:32;;;;;;;13.18;10.02;;;;;;;37.62;24.78;98828.78;5061597;28;20036;-80
2021/07/19 10:18:59;;;;;;;12.30;9.40;;;;;;;38.00;23.97;98820.78;5062364;28;20725;-81
2021/07/19 10:21:30;;;;;;;14.48;10.65;;;;;;;38.40;23.52;98830.91;5061848;28;20043;-81
2021/07/19 10:24:02;;;;;;;13.82;9.15;;;;;;;38.62;23.10;98821.63;5096528;28;20563;-80
2021/07/19 10:26:28;;;;;;;14.50;8.25;;;;;;;38.58;22.53;98822.59;5079307;28;20122;-82
2021/07/19 10:28:54;;;;;;;14.68;8.75;;;;;;;37.94;23.31;98832.31;5045535;28;20039;-82
2021/07/19 10:31:20;;;;;;;;;;;;;;;37.59;24.70;98834.94;5062621;28;20338;-79
2021/07/19 10:33:47;;;;;;;;;;;;;;;37.55;24.87;98824.53;5062203;28;19915;-81
2021/07/19 10:36:13;;;;;;;17.00;11.38;;;;;;;37.50;24.72;98823.84;5095296;28;19926;-83
2021/07/19 10:38:39;;;;;;;;;;;;;;;37.49;25.36;98819.50;5079008;28;20055;-80
2021/07/19 10:41:06;;;;;;;18.83;10.60;;;;;;;37.49;24.89;98814.78;5078035;28;19915;-82
2021/07/19 10:43:32;;;;;;;;;;;;;;;37.32;25.24;98815.50;5096380;28;20043;-82
2021/07/19 10:46:10;;;;;;;13.48;9.07;;;;;;;36.89;24.76;98814.16;5095075;28;19920;-81
2021/07/19 10:48:36;;;;;;;15.75;10.07;;;;;;;36.39;25.81;98817.00;5062299;28;20055;-82
2021/07/19 10:51:22;;;;;;;14.75;9.23;;;;;;;36.39;25.72;98812.31;5095218;28;20457;-81
2021/07/19 10:53:48;;;;;;;17.95;9.80;;;;;;;36.94;25.31;98809.63;5062660;28;20082;-82
2021/07/19 10:56:15;;;;;;;15.10;8.88;;;;;;;35.93;26.26;98803.13;5079098;28;20087;-86
2021/07/19 10:58:44;;;;;;;18.73;9.48;;;;;;;35.45;27.06;98790.63;5079512;28;20048;-82
2021/07/19 11:01:23;;;;;;;13.85;9.02;;;;;;;35.54;27.52;98803.66;5079321;28;20771;-81
2021/07/19 11:03:51;;;;;;;19.73;9.00;;;;;;;35.50;27.02;98797.16;5096504;28;20063;-83
2021/07/19 11:06:38;;;;;;;15.27;8.90;;;;;;;35.74;26.54;98794.16;5078582;28;20044;-80
2021/07/19 11:09:07;;;;;;;15.85;8.30;;;;;;;36.15;26.06;98790.53;5080052;28;20063;-80
2021/07/19 11:11:42;;;;;;;13.45;9.05;;;;;;;35.64;26.82;98786.94;5076034;28;20052;-81
2021/07/19 11:14:27;;;;;;;14.45;8.98;;;;;;;35.54;27.18;98787.97;5075407;28;20036;-81
2021/07/19 11:16:55;;;;;;;11.32;8.02;;;;;;;35.38;27.26;98790.22;5075319;28;20044;-79
2021/07/19 11:19:36;;;;;;;13.00;7.95;;;;;;;34.88;27.86;98782.59;5092650;28;20104;-79
2021/07/19 11:22:10;;;;;;;19.20;9.95;;;;;;;34.06;28.69;98779.19;5059262;28;20055;-82
2021/07/19 11:24:44;;;;;;;16.75;9.40;;;;;;;34.34;28.14;98791.16;5092765;28;20036;-80
2021/07/19 11:27:12;;;;;;;14.52;8.43;;;;;;;34.24;27.48;98777.53;5075631;28;20131;-81
2021/07/19 11:29:40;;;;;;;11.57;7.65;;;;;;;34.76;27.49;98772.06;5075729;28;20110;-84